createdAt,value
2019-04-29T00:01:02.686Z,13.07
2019-04-29T00:06:11.003Z,12.20
2019-04-29T00:11:18.534Z,11.93
2019-04-29T00:16:44.666Z,10.43
2019-04-29T00:21:52.122Z,15.93
2019-04-29T00:26:59.529Z,13.73
2019-04-29T00:32:07.534Z,12.30
2019-04-29T00:37:26.305Z,13.27
2019-04-29T00:43:10.496Z,11.73
2019-04-29T00:48:18.423Z,13.30
2019-04-29T00:53:26.266Z,13.23
2019-04-29T00:58:33.615Z,12.37
2019-04-29T01:03:41.227Z,12.93
2019-04-29T01:08:49.086Z,12.50
2019-04-29T01:13:56.391Z,14.57
2019-04-29T01:19:04.051Z,15.63
2019-04-29T01:24:11.574Z,15.10
2019-04-29T01:29:19.912Z,15.17
2019-04-29T01:34:32.312Z,14.37
2019-04-29T01:39:45.577Z,16.53
2019-04-29T01:44:52.946Z,13.90
2019-04-29T01:50:00.327Z,16.10
2019-04-29T01:55:07.707Z,14.97
2019-04-29T02:00:15.406Z,13.70
2019-04-29T02:05:22.801Z,16.90
2019-04-29T02:10:34.583Z,16.57
2019-04-29T02:15:41.938Z,13.30
2019-04-29T02:20:49.294Z,13.13
2019-04-29T02:25:56.772Z,14.13
2019-04-29T02:31:21.835Z,14.17
2019-04-29T02:36:30.143Z,12.93
2019-04-29T02:41:52.073Z,12.10
2019-04-29T02:46:59.465Z,12.60
2019-04-29T02:52:06.914Z,12.93
2019-04-29T02:57:37.613Z,12.57
2019-04-29T03:02:53.223Z,14.53
2019-04-29T03:08:00.639Z,16.43
2019-04-29T03:13:08.421Z,18.27
2019-04-29T03:18:17.155Z,17.67
2019-04-29T03:23:25.037Z,16.63
2019-04-29T03:28:32.505Z,15.63
2019-04-29T03:33:39.893Z,15.70
2019-04-29T03:38:47.312Z,17.87
2019-04-29T03:43:54.656Z,16.40
2019-04-29T03:49:01.889Z,18.17
2019-04-29T03:54:11.257Z,16.33
2019-04-29T03:59:18.871Z,18.07
2019-04-29T04:04:44.103Z,14.27
2019-04-29T04:09:51.481Z,15.83
2019-04-29T04:14:58.697Z,16.77
2019-04-29T04:20:06.583Z,14.40
2019-04-29T04:25:13.992Z,12.57
2019-04-29T04:30:22.971Z,15.63
2019-04-29T04:35:30.352Z,15.17
2019-04-29T04:40:43.518Z,16.40
2019-04-29T04:45:50.796Z,17.33
2019-04-29T04:50:58.083Z,17.87
2019-04-29T04:56:05.324Z,20.57
2019-04-29T05:01:12.699Z,19.33
2019-04-29T05:06:20.007Z,18.47
2019-04-29T05:11:27.251Z,19.70
2019-04-29T05:16:34.561Z,24.13
2019-04-29T05:21:42.070Z,21.97
2019-04-29T05:26:49.303Z,21.73
2019-04-29T05:31:56.578Z,23.17
2019-04-29T05:37:28.784Z,23.57
2019-04-29T05:42:36.209Z,26.57
2019-04-29T05:47:47.087Z,21.13
2019-04-29T05:53:00.101Z,23.93
2019-04-29T05:58:13.086Z,27.23
2019-04-29T06:03:20.359Z,22.20
2019-04-29T06:08:27.734Z,24.87
2019-04-29T06:13:35.014Z,21.67
2019-04-29T06:18:42.256Z,26.97
2019-04-29T06:23:49.601Z,27.90
2019-04-29T06:28:56.912Z,29.77
2019-04-29T06:34:05.299Z,29.57
2019-04-29T06:39:13.414Z,26.07
2019-04-29T06:44:20.640Z,31.27
2019-04-29T06:49:28.012Z,29.97
2019-04-29T06:54:35.273Z,33.17
2019-04-29T06:59:42.910Z,31.83
2019-04-29T07:04:51.507Z,35.73
2019-04-29T07:09:58.827Z,35.27
2019-04-29T07:15:07.710Z,34.03
2019-04-29T07:20:15.946Z,34.60
2019-04-29T07:25:24.648Z,37.23
2019-04-29T07:30:32.170Z,38.00
2019-04-29T07:35:43.117Z,31.33
2019-04-29T07:40:48.467Z,32.40
2019-04-29T07:46:16.399Z,29.90
2019-04-29T07:51:23.618Z,30.10
2019-04-29T07:56:30.947Z,34.00
2019-04-29T08:01:38.364Z,29.47
2019-04-29T08:06:46.771Z,33.23
2019-04-29T08:11:54.757Z,29.40
2019-04-29T08:17:02.002Z,28.43
2019-04-29T08:22:09.390Z,28.77
2019-04-29T08:27:16.728Z,25.57
2019-04-29T08:32:24.241Z,21.80
2019-04-29T08:37:31.621Z,27.30
2019-04-29T08:42:46.534Z,20.77
2019-04-29T08:47:51.454Z,20.97
2019-04-29T08:52:58.704Z,20.13
2019-04-29T08:58:06.898Z,16.57
2019-04-29T09:03:18.761Z,15.87
2019-04-29T09:08:24.159Z,18.27
2019-04-29T09:13:31.568Z,18.50
2019-04-29T09:18:38.898Z,15.37
2019-04-29T09:23:46.289Z,17.63
2019-04-29T09:28:53.598Z,17.17
2019-04-29T09:34:06.881Z,15.33
2019-04-29T09:39:09.941Z,16.97
2019-04-29T09:44:35.288Z,19.73
2019-04-29T09:49:43.980Z,20.20
2019-04-29T09:54:51.382Z,21.27
2019-04-29T10:00:07.280Z,21.20
2019-04-29T10:05:32.238Z,18.77
2019-04-29T10:10:39.803Z,17.60
2019-04-29T10:16:05.888Z,15.90
2019-04-29T10:21:16.713Z,13.13
2019-04-29T10:26:24.161Z,17.13
2019-04-29T10:31:31.463Z,15.03
2019-04-29T10:36:38.673Z,12.20
2019-04-29T10:41:47.915Z,10.40
2019-04-29T10:47:12.666Z,8.80
2019-04-29T10:52:20.323Z,6.47
2019-04-29T10:57:29.424Z,8.93
2019-04-29T11:02:39.619Z,7.50
2019-04-29T11:07:47.437Z,7.23
2019-04-29T11:12:56.271Z,9.77
2019-04-29T11:18:04.873Z,7.85
2019-04-29T11:23:32.223Z,6.30
2019-04-29T11:28:41.156Z,8.07
2019-04-29T11:33:58.813Z,7.60
2019-04-29T11:39:13.565Z,7.03
2019-04-29T11:44:22.012Z,7.10
2019-04-29T11:49:35.442Z,7.50
2019-04-29T11:54:42.715Z,7.33
2019-04-29T12:00:10.190Z,8.57
2019-04-29T12:05:23.245Z,10.27
2019-04-29T12:10:30.832Z,9.90
2019-04-29T12:15:57.604Z,10.43
2019-04-29T12:21:25.677Z,7.73
2019-04-29T12:26:35.521Z,9.27
2019-04-29T12:32:04.488Z,9.57
2019-04-29T12:37:39.785Z,9.43
2019-04-29T12:43:18.110Z,11.43
2019-04-29T12:48:25.722Z,9.47
2019-04-29T12:53:33.085Z,8.83
2019-04-29T12:58:40.481Z,9.33
2019-04-29T13:04:05.438Z,8.30
2019-04-29T13:09:19.798Z,8.87
2019-04-29T13:14:33.101Z,8.53
2019-04-29T13:19:54.630Z,7.03
2019-04-29T13:24:54.992Z,6.40
2019-04-29T13:30:02.407Z,6.30
2019-04-29T13:35:12.764Z,5.13
2019-04-29T13:40:20.736Z,4.57
2019-04-29T13:45:36.293Z,3.90
2019-04-29T13:50:47.808Z,5.10
2019-04-29T13:56:10.515Z,6.53
2019-04-29T14:01:32.943Z,8.80
2019-04-29T14:06:36.127Z,5.50
2019-04-29T14:11:43.445Z,5.97
2019-04-29T14:17:08.071Z,7.20
2019-04-29T14:21:59.819Z,7.40
2019-04-29T14:27:07.473Z,7.63
2019-04-29T14:32:18.086Z,6.97
2019-04-29T14:37:25.505Z,6.37
2019-04-29T14:42:39.575Z,5.80
2019-04-29T14:47:52.923Z,5.07
2019-04-29T14:53:00.349Z,6.60
2019-04-29T14:58:07.660Z,7.50
2019-04-29T15:03:14.989Z,7.03
2019-04-29T15:08:22.372Z,8.07
2019-04-29T15:13:29.702Z,8.27
2019-04-29T15:18:54.820Z,8.93
2019-04-29T15:24:02.303Z,12.90
2019-04-29T15:29:10.915Z,13.13
2019-04-29T15:34:18.432Z,21.50
2019-04-29T15:39:26.376Z,27.33
2019-04-29T15:44:35.002Z,34.00
2019-04-29T15:49:42.417Z,36.40
2019-04-29T15:54:50.918Z,37.70
2019-04-29T16:00:03.723Z,39.67
2019-04-29T16:05:28.825Z,40.77
2019-04-29T16:10:57.936Z,45.20
2019-04-29T16:16:02.543Z,55.07
2019-04-29T16:21:10.020Z,49.37
2019-04-29T16:26:17.484Z,65.80
2019-04-29T16:31:25.144Z,64.03
2019-04-29T16:36:32.655Z,78.73
2019-04-29T16:41:58.651Z,79.20
2019-04-29T16:47:13.292Z,77.63
2019-04-29T16:52:18.104Z,70.67
2019-04-29T16:57:25.547Z,70.70
2019-04-29T17:02:33.026Z,71.43
2019-04-29T17:07:41.639Z,61.07
2019-04-29T17:12:51.110Z,61.77
2019-04-29T17:17:59.495Z,69.27
2019-04-29T17:23:06.797Z,66.73
2019-04-29T17:28:42.022Z,64.33
2019-04-29T17:33:59.196Z,65.03
2019-04-29T17:39:09.442Z,62.63
2019-04-29T17:44:28.213Z,74.73
2019-04-29T17:50:02.099Z,63.27
2019-04-29T17:55:38.659Z,65.27
2019-04-29T18:01:05.852Z,62.97
2019-04-29T18:06:24.438Z,58.97
2019-04-29T18:11:27.871Z,61.60
2019-04-29T18:16:43.781Z,53.03
2019-04-29T18:22:24.767Z,55.70
2019-04-29T18:27:34.994Z,56.70
2019-04-29T18:32:46.693Z,60.30
2019-04-29T18:37:55.742Z,59.17
2019-04-29T18:43:04.898Z,60.57
2019-04-29T18:48:16.988Z,55.27
2019-04-29T18:54:09.451Z,56.40
2019-04-29T18:59:30.404Z,54.57
2019-04-29T19:04:53.425Z,58.57
2019-04-29T19:11:15.384Z,52.37
2019-04-29T19:17:25.745Z,58.07
2019-04-29T19:22:47.639Z,59.37
2019-04-29T19:28:11.746Z,65.40
2019-04-29T19:33:15.144Z,61.33
2019-04-29T19:38:25.292Z,59.00
2019-04-29T19:43:42.678Z,54.97
2019-04-29T19:48:45.132Z,57.50
2019-04-29T19:54:23.893Z,48.60
2019-04-29T19:59:36.872Z,56.57
2019-04-29T20:05:09.992Z,63.50
2019-04-29T20:11:12.355Z,65.87
2019-04-29T20:16:09.888Z,69.10
2019-04-29T20:41:40.705Z,54.37
2019-04-29T20:58:50.408Z,64.30
2019-04-29T21:05:14.432Z,59.47
2019-04-29T21:30:35.555Z,71.77
2019-04-29T21:35:58.088Z,53.10
2019-04-29T21:41:20.137Z,55.63
2019-04-29T21:53:40.168Z,50.93
2019-04-29T21:58:46.342Z,44.07
2019-04-29T22:03:57.653Z,51.37
2019-04-29T22:09:05.185Z,50.60
2019-04-29T22:14:14.174Z,46.33
2019-04-29T22:20:07.437Z,42.07
2019-04-29T22:26:05.062Z,46.57
2019-04-29T22:31:14.843Z,46.53
2019-04-29T22:36:22.028Z,44.87
2019-04-29T22:42:07.566Z,32.00
2019-04-29T22:47:17.302Z,31.17
2019-04-29T22:52:25.488Z,24.20
2019-04-29T22:57:32.505Z,21.90
2019-04-29T23:02:39.928Z,22.37
2019-04-29T23:07:46.983Z,22.70
2019-04-29T23:12:57.439Z,21.33
2019-04-29T23:18:03.028Z,24.90
2019-04-29T23:23:15.684Z,23.13
2019-04-29T23:28:26.900Z,21.93
2019-04-29T23:33:31.868Z,16.77
2019-04-29T23:38:42.892Z,21.73
2019-04-29T23:43:47.899Z,20.73
2019-04-29T23:48:56.479Z,17.40
2019-04-29T23:54:07.856Z,17.67
2019-04-29T23:59:20.881Z,20.53
